This is the latest recevied weather packets stored in our database for station/object GW3ATZ-10. If no packets are shown the sender has not sent any weather packets the latest 10 day(s).
| Time | Temp. | Humidity | Pressure | Rain* | Wind** | Luminosity | Snow |
|---|---|---|---|---|---|---|---|
| 1777590337 | 18.33° C | 41% | 1021.8 hPa | - | - | - | - |
| 1777586729 | 18.33° C | 41% | 1021.9 hPa | - | - | - | - |
| 1777583170 | 18.89° C | 40% | 1021.7 hPa | - | - | - | - |
| 1777579562 | 18.89° C | 39% | 1021.2 hPa | - | - | - | - |
| 1777575953 | 19.44° C | 39% | 1020.6 hPa | - | - | - | - |
| 1777572345 | 19.44° C | 39% | 1020.3 hPa | - | - | - | - |
| 1777568737 | 18.89° C | 39% | 1020.2 hPa | - | - | - | - |
| 1777565128 | 18.33° C | 39% | 1020.4 hPa | - | - | - | - |
| 1777561592 | 17.78° C | 40% | 1020.8 hPa | - | - | - | - |
| 1777557984 | 17.78° C | 39% | 1021.3 hPa | - | - | - | - |
| 1777554356 | 17.78° C | 38% | 1022 hPa | - | - | - | - |
| 1777550748 | 18.89° C | 35% | 1022.2 hPa | - | - | - | - |
| 1777547139 | 18.89° C | 33% | 1023 hPa | - | - | - | - |
| 1777543530 | 17.22° C | 38% | 1023.9 hPa | - | - | - | - |
| 1777539969 | 16.11° C | 44% | 1024.3 hPa | - | - | - | - |
| 1777536361 | 16.67° C | 42% | 1025.4 hPa | - | - | - | - |
| 1777532753 | 12.22° C | 49% | 1025.7 hPa | - | - | - | - |
| 1777529144 | 13.33° C | 44% | 1026.1 hPa | - | - | - | - |
| 1777525536 | 13.89° C | 43% | 1026.1 hPa | - | - | - | - |
| 1777521928 | 14.44° C | 43% | 1026.2 hPa | - | - | - | - |
| 1777518368 | 14.44° C | 42% | 1026.5 hPa | - | - | - | - |
| 1777514760 | 15° C | 42% | 1027 hPa | - | - | - | - |
| 1777511152 | 15.56° C | 41% | 1027.3 hPa | - | - | - | - |
| 1777507544 | 16.11° C | 40% | 1027.5 hPa | - | - | - | - |
| 1777503935 | 16.11° C | 39% | 1027.7 hPa | - | - | - | - |
* Rain since midnight (hover to see other rain measurements)
** Current wind speed in m/s (hover to see current wind gust speed)